sensor_id;sensor_type;location;lat;lon;timestamp;P1;durP1;ratioP1;P2;durP2;ratioP2
71164;SDS011;58859;55.132;-1.586;2023-07-22T00:00:19;3.40;;;2.17;;
71164;SDS011;58859;55.132;-1.586;2023-07-22T00:02:47;3.10;;;1.80;;
71164;SDS011;58859;55.132;-1.586;2023-07-22T00:05:13;2.67;;;1.87;;
71164;SDS011;58859;55.132;-1.586;2023-07-22T00:07:38;3.13;;;1.98;;
71164;SDS011;58859;55.132;-1.586;2023-07-22T00:10:05;3.65;;;2.20;;
71164;SDS011;58859;55.132;-1.586;2023-07-22T00:12:33;3.17;;;1.80;;
71164;SDS011;58859;55.132;-1.586;2023-07-22T00:14:59;4.57;;;2.00;;
71164;SDS011;58859;55.132;-1.586;2023-07-22T00:17:24;4.40;;;2.23;;
71164;SDS011;58859;55.132;-1.586;2023-07-22T00:19:50;6.43;;;2.33;;
71164;SDS011;58859;55.132;-1.586;2023-07-22T00:22:15;3.67;;;2.05;;
71164;SDS011;58859;55.132;-1.586;2023-07-22T00:24:41;4.43;;;1.97;;
71164;SDS011;58859;55.132;-1.586;2023-07-22T00:27:06;2.83;;;1.87;;
71164;SDS011;58859;55.132;-1.586;2023-07-22T00:29:33;3.40;;;1.77;;
71164;SDS011;58859;55.132;-1.586;2023-07-22T00:32:02;3.55;;;2.30;;
71164;SDS011;58859;55.132;-1.586;2023-07-22T00:34:27;3.80;;;2.03;;
71164;SDS011;58859;55.132;-1.586;2023-07-22T00:36:53;3.50;;;2.20;;
71164;SDS011;58859;55.132;-1.586;2023-07-22T00:39:18;5.93;;;2.33;;
71164;SDS011;58859;55.132;-1.586;2023-07-22T00:41:44;4.27;;;2.43;;
71164;SDS011;58859;55.132;-1.586;2023-07-22T00:44:12;3.53;;;2.13;;
71164;SDS011;58859;55.132;-1.586;2023-07-22T00:46:38;3.20;;;2.05;;
71164;SDS011;58859;55.132;-1.586;2023-07-22T00:49:07;5.95;;;2.47;;
71164;SDS011;58859;55.132;-1.586;2023-07-22T00:51:33;3.20;;;2.35;;
71164;SDS011;58859;55.132;-1.586;2023-07-22T00:53:58;3.28;;;2.40;;
71164;SDS011;58859;55.132;-1.586;2023-07-22T00:56:24;2.70;;;1.93;;
71164;SDS011;58859;55.132;-1.586;2023-07-22T00:58:50;4.18;;;2.10;;
71164;SDS011;58859;55.132;-1.586;2023-07-22T01:01:16;3.90;;;2.65;;
71164;SDS011;58859;55.132;-1.586;2023-07-22T01:03:42;3.77;;;2.30;;
71164;SDS011;58859;55.132;-1.586;2023-07-22T01:06:08;3.10;;;1.85;;
71164;SDS011;58859;55.132;-1.586;2023-07-22T01:08:34;3.15;;;2.28;;
71164;SDS011;58859;55.132;-1.586;2023-07-22T01:11:00;2.65;;;1.85;;
71164;SDS011;58859;55.132;-1.586;2023-07-22T01:13:25;2.23;;;1.70;;
71164;SDS011;58859;55.132;-1.586;2023-07-22T01:15:51;3.43;;;2.20;;
71164;SDS011;58859;55.132;-1.586;2023-07-22T01:18:16;3.55;;;1.90;;
71164;SDS011;58859;55.132;-1.586;2023-07-22T01:20:42;4.00;;;2.47;;
71164;SDS011;58859;55.132;-1.586;2023-07-22T01:23:08;3.17;;;2.10;;
71164;SDS011;58859;55.132;-1.586;2023-07-22T01:25:34;2.70;;;1.88;;
71164;SDS011;58859;55.132;-1.586;2023-07-22T01:27:59;2.93;;;1.90;;
71164;SDS011;58859;55.132;-1.586;2023-07-22T01:30:25;2.50;;;1.97;;
71164;SDS011;58859;55.132;-1.586;2023-07-22T01:32:52;2.55;;;2.17;;
71164;SDS011;58859;55.132;-1.586;2023-07-22T01:35:18;3.75;;;2.08;;
71164;SDS011;58859;55.132;-1.586;2023-07-22T01:37:44;3.05;;;2.35;;
71164;SDS011;58859;55.132;-1.586;2023-07-22T01:40:10;3.65;;;2.17;;
71164;SDS011;58859;55.132;-1.586;2023-07-22T01:42:39;3.78;;;1.88;;
71164;SDS011;58859;55.132;-1.586;2023-07-22T01:45:05;2.67;;;1.63;;
71164;SDS011;58859;55.132;-1.586;2023-07-22T01:47:33;3.20;;;1.83;;
71164;SDS011;58859;55.132;-1.586;2023-07-22T01:49:59;3.08;;;1.90;;
71164;SDS011;58859;55.132;-1.586;2023-07-22T01:52:25;3.25;;;2.10;;
71164;SDS011;58859;55.132;-1.586;2023-07-22T01:54:51;3.05;;;2.05;;
71164;SDS011;58859;55.132;-1.586;2023-07-22T01:57:16;3.13;;;1.70;;
71164;SDS011;58859;55.132;-1.586;2023-07-22T01:59:41;2.37;;;1.70;;
71164;SDS011;58859;55.132;-1.586;2023-07-22T02:02:07;3.00;;;2.00;;
71164;SDS011;58859;55.132;-1.586;2023-07-22T02:04:32;2.63;;;1.90;;
71164;SDS011;58859;55.132;-1.586;2023-07-22T02:06:57;4.63;;;2.05;;
71164;SDS011;58859;55.132;-1.586;2023-07-22T02:09:23;4.00;;;2.25;;
71164;SDS011;58859;55.132;-1.586;2023-07-22T02:11:48;4.63;;;2.20;;
71164;SDS011;58859;55.132;-1.586;2023-07-22T02:14:14;2.80;;;1.60;;
71164;SDS011;58859;55.132;-1.586;2023-07-22T02:16:39;2.92;;;1.88;;
71164;SDS011;58859;55.132;-1.586;2023-07-22T02:19:05;3.90;;;1.93;;
71164;SDS011;58859;55.132;-1.586;2023-07-22T02:21:30;2.50;;;1.83;;
71164;SDS011;58859;55.132;-1.586;2023-07-22T02:23:55;2.93;;;2.10;;
71164;SDS011;58859;55.132;-1.586;2023-07-22T02:26:21;4.30;;;1.95;;
71164;SDS011;58859;55.132;-1.586;2023-07-22T02:28:47;2.67;;;1.70;;
71164;SDS011;58859;55.132;-1.586;2023-07-22T02:31:13;2.75;;;1.80;;
71164;SDS011;58859;55.132;-1.586;2023-07-22T02:33:38;2.97;;;2.00;;
71164;SDS011;58859;55.132;-1.586;2023-07-22T02:36:04;3.78;;;1.77;;
71164;SDS011;58859;55.132;-1.586;2023-07-22T02:38:30;3.20;;;1.80;;
71164;SDS011;58859;55.132;-1.586;2023-07-22T02:41:00;2.40;;;2.07;;
71164;SDS011;58859;55.132;-1.586;2023-07-22T02:43:27;2.47;;;1.77;;
71164;SDS011;58859;55.132;-1.586;2023-07-22T02:45:52;2.87;;;1.77;;
71164;SDS011;58859;55.132;-1.586;2023-07-22T02:48:18;4.97;;;1.85;;
71164;SDS011;58859;55.132;-1.586;2023-07-22T02:50:44;3.80;;;1.90;;
71164;SDS011;58859;55.132;-1.586;2023-07-22T02:53:09;4.77;;;2.30;;
71164;SDS011;58859;55.132;-1.586;2023-07-22T02:55:34;2.65;;;1.70;;
71164;SDS011;58859;55.132;-1.586;2023-07-22T02:58:00;2.67;;;1.77;;
71164;SDS011;58859;55.132;-1.586;2023-07-22T03:00:25;2.90;;;1.83;;
71164;SDS011;58859;55.132;-1.586;2023-07-22T03:02:51;4.77;;;2.07;;
71164;SDS011;58859;55.132;-1.586;2023-07-22T03:05:18;3.00;;;1.90;;
71164;SDS011;58859;55.132;-1.586;2023-07-22T03:07:44;5.28;;;2.50;;
71164;SDS011;58859;55.132;-1.586;2023-07-22T03:10:10;4.13;;;2.40;;
71164;SDS011;58859;55.132;-1.586;2023-07-22T03:12:35;3.03;;;1.97;;
71164;SDS011;58859;55.132;-1.586;2023-07-22T03:15:01;5.38;;;2.22;;
71164;SDS011;58859;55.132;-1.586;2023-07-22T03:17:29;5.53;;;2.30;;
71164;SDS011;58859;55.132;-1.586;2023-07-22T03:19:54;4.83;;;2.47;;
71164;SDS011;58859;55.132;-1.586;2023-07-22T03:22:20;3.55;;;2.13;;
71164;SDS011;58859;55.132;-1.586;2023-07-22T03:24:45;4.37;;;2.23;;
71164;SDS011;58859;55.132;-1.586;2023-07-22T03:27:11;3.30;;;2.13;;
71164;SDS011;58859;55.132;-1.586;2023-07-22T03:29:38;10.68;;;2.10;;
71164;SDS011;58859;55.132;-1.586;2023-07-22T03:32:04;2.65;;;2.13;;
71164;SDS011;58859;55.132;-1.586;2023-07-22T03:34:30;4.57;;;2.03;;
71164;SDS011;58859;55.132;-1.586;2023-07-22T03:36:57;2.55;;;1.85;;
71164;SDS011;58859;55.132;-1.586;2023-07-22T03:39:23;4.53;;;2.50;;
71164;SDS011;58859;55.132;-1.586;2023-07-22T03:41:48;4.33;;;2.13;;
71164;SDS011;58859;55.132;-1.586;2023-07-22T03:44:14;2.33;;;2.10;;
71164;SDS011;58859;55.132;-1.586;2023-07-22T03:46:39;4.82;;;2.72;;
71164;SDS011;58859;55.132;-1.586;2023-07-22T03:49:05;3.63;;;2.35;;
71164;SDS011;58859;55.132;-1.586;2023-07-22T03:51:30;3.70;;;2.07;;
71164;SDS011;58859;55.132;-1.586;2023-07-22T03:53:56;4.97;;;2.30;;
71164;SDS011;58859;55.132;-1.586;2023-07-22T03:56:22;4.60;;;2.53;;
71164;SDS011;58859;55.132;-1.586;2023-07-22T03:58:48;5.18;;;2.83;;
71164;SDS011;58859;55.132;-1.586;2023-07-22T04:01:14;6.05;;;3.30;;
71164;SDS011;58859;55.132;-1.586;2023-07-22T04:03:40;3.63;;;2.43;;
71164;SDS011;58859;55.132;-1.586;2023-07-22T04:06:05;5.23;;;2.57;;
71164;SDS011;58859;55.132;-1.586;2023-07-22T04:08:30;4.87;;;2.50;;
71164;SDS011;58859;55.132;-1.586;2023-07-22T04:10:56;3.95;;;2.30;;
71164;SDS011;58859;55.132;-1.586;2023-07-22T04:13:23;5.78;;;2.58;;
71164;SDS011;58859;55.132;-1.586;2023-07-22T04:15:50;5.45;;;2.33;;
71164;SDS011;58859;55.132;-1.586;2023-07-22T04:18:16;3.30;;;2.17;;
71164;SDS011;58859;55.132;-1.586;2023-07-22T04:20:42;4.15;;;2.20;;
71164;SDS011;58859;55.132;-1.586;2023-07-22T04:23:08;3.90;;;2.37;;
71164;SDS011;58859;55.132;-1.586;2023-07-22T04:25:38;3.45;;;2.10;;
71164;SDS011;58859;55.132;-1.586;2023-07-22T04:28:10;4.33;;;2.83;;
71164;SDS011;58859;55.132;-1.586;2023-07-22T04:30:36;4.85;;;2.30;;
71164;SDS011;58859;55.132;-1.586;2023-07-22T04:33:03;3.08;;;2.38;;
71164;SDS011;58859;55.132;-1.586;2023-07-22T04:35:33;3.67;;;2.30;;
71164;SDS011;58859;55.132;-1.586;2023-07-22T04:37:59;4.00;;;2.40;;
71164;SDS011;58859;55.132;-1.586;2023-07-22T04:40:24;3.90;;;2.10;;
71164;SDS011;58859;55.132;-1.586;2023-07-22T04:42:50;4.93;;;2.40;;
71164;SDS011;58859;55.132;-1.586;2023-07-22T04:45:16;3.67;;;2.13;;
71164;SDS011;58859;55.132;-1.586;2023-07-22T04:47:43;4.05;;;2.17;;
71164;SDS011;58859;55.132;-1.586;2023-07-22T04:50:11;3.38;;;1.90;;
71164;SDS011;58859;55.132;-1.586;2023-07-22T04:52:37;2.13;;;1.85;;
71164;SDS011;58859;55.132;-1.586;2023-07-22T04:55:03;3.17;;;1.83;;
71164;SDS011;58859;55.132;-1.586;2023-07-22T04:57:34;3.03;;;2.10;;
71164;SDS011;58859;55.132;-1.586;2023-07-22T05:00:00;4.15;;;2.20;;
71164;SDS011;58859;55.132;-1.586;2023-07-22T05:02:28;3.00;;;1.92;;
71164;SDS011;58859;55.132;-1.586;2023-07-22T05:04:55;3.17;;;1.75;;
71164;SDS011;58859;55.132;-1.586;2023-07-22T05:07:21;2.45;;;1.88;;
71164;SDS011;58859;55.132;-1.586;2023-07-22T05:09:46;4.03;;;1.73;;
71164;SDS011;58859;55.132;-1.586;2023-07-22T05:12:12;2.83;;;2.00;;
71164;SDS011;58859;55.132;-1.586;2023-07-22T05:14:37;2.60;;;1.45;;
71164;SDS011;58859;55.132;-1.586;2023-07-22T05:17:03;5.23;;;1.60;;
71164;SDS011;58859;55.132;-1.586;2023-07-22T05:19:28;2.10;;;1.67;;
71164;SDS011;58859;55.132;-1.586;2023-07-22T05:21:54;1.97;;;1.70;;
71164;SDS011;58859;55.132;-1.586;2023-07-22T05:24:19;1.58;;;1.48;;
71164;SDS011;58859;55.132;-1.586;2023-07-22T05:26:46;2.55;;;1.40;;
71164;SDS011;58859;55.132;-1.586;2023-07-22T05:29:11;1.63;;;1.53;;
71164;SDS011;58859;55.132;-1.586;2023-07-22T05:31:36;2.10;;;1.50;;
71164;SDS011;58859;55.132;-1.586;2023-07-22T05:34:02;2.10;;;1.47;;
71164;SDS011;58859;55.132;-1.586;2023-07-22T05:36:28;3.63;;;1.50;;
71164;SDS011;58859;55.132;-1.586;2023-07-22T05:38:54;2.27;;;1.50;;
71164;SDS011;58859;55.132;-1.586;2023-07-22T05:41:19;2.50;;;2.00;;
71164;SDS011;58859;55.132;-1.586;2023-07-22T05:43:45;2.17;;;1.60;;
71164;SDS011;58859;55.132;-1.586;2023-07-22T05:46:10;3.30;;;1.70;;
71164;SDS011;58859;55.132;-1.586;2023-07-22T05:48:36;2.70;;;2.00;;
71164;SDS011;58859;55.132;-1.586;2023-07-22T05:51:01;1.83;;;1.63;;
71164;SDS011;58859;55.132;-1.586;2023-07-22T05:53:27;3.30;;;1.63;;
71164;SDS011;58859;55.132;-1.586;2023-07-22T05:55:52;1.60;;;1.38;;
71164;SDS011;58859;55.132;-1.586;2023-07-22T05:58:17;1.93;;;1.20;;
71164;SDS011;58859;55.132;-1.586;2023-07-22T06:00:43;2.53;;;1.57;;
71164;SDS011;58859;55.132;-1.586;2023-07-22T06:03:09;2.63;;;2.20;;
71164;SDS011;58859;55.132;-1.586;2023-07-22T06:05:35;4.30;;;1.80;;
71164;SDS011;58859;55.132;-1.586;2023-07-22T06:08:00;2.33;;;1.20;;
71164;SDS011;58859;55.132;-1.586;2023-07-22T06:10:26;1.80;;;1.60;;
71164;SDS011;58859;55.132;-1.586;2023-07-22T06:12:51;2.43;;;1.60;;
71164;SDS011;58859;55.132;-1.586;2023-07-22T06:15:17;1.85;;;1.73;;
71164;SDS011;58859;55.132;-1.586;2023-07-22T06:17:42;2.70;;;2.07;;
71164;SDS011;58859;55.132;-1.586;2023-07-22T06:20:08;4.03;;;1.83;;
71164;SDS011;58859;55.132;-1.586;2023-07-22T06:22:34;2.28;;;1.60;;
71164;SDS011;58859;55.132;-1.586;2023-07-22T06:24:59;4.43;;;1.93;;
71164;SDS011;58859;55.132;-1.586;2023-07-22T06:27:24;2.47;;;1.67;;
71164;SDS011;58859;55.132;-1.586;2023-07-22T06:29:50;2.38;;;1.33;;
71164;SDS011;58859;55.132;-1.586;2023-07-22T06:32:15;1.30;;;1.20;;
71164;SDS011;58859;55.132;-1.586;2023-07-22T06:34:40;1.80;;;1.60;;
71164;SDS011;58859;55.132;-1.586;2023-07-22T06:37:06;1.87;;;1.10;;
71164;SDS011;58859;55.132;-1.586;2023-07-22T06:39:31;3.07;;;1.10;;
71164;SDS011;58859;55.132;-1.586;2023-07-22T06:41:57;1.13;;;1.03;;
71164;SDS011;58859;55.132;-1.586;2023-07-22T06:44:22;1.10;;;0.85;;
71164;SDS011;58859;55.132;-1.586;2023-07-22T06:46:48;1.35;;;1.25;;
71164;SDS011;58859;55.132;-1.586;2023-07-22T06:49:13;0.93;;;0.90;;
71164;SDS011;58859;55.132;-1.586;2023-07-22T06:51:38;1.30;;;0.83;;
71164;SDS011;58859;55.132;-1.586;2023-07-22T06:54:04;1.03;;;0.80;;
71164;SDS011;58859;55.132;-1.586;2023-07-22T06:56:29;1.13;;;1.10;;
71164;SDS011;58859;55.132;-1.586;2023-07-22T06:58:54;1.60;;;0.93;;
71164;SDS011;58859;55.132;-1.586;2023-07-22T07:01:20;0.85;;;0.73;;
71164;SDS011;58859;55.132;-1.586;2023-07-22T07:03:45;1.33;;;0.87;;
71164;SDS011;58859;55.132;-1.586;2023-07-22T07:06:11;0.93;;;0.70;;
71164;SDS011;58859;55.132;-1.586;2023-07-22T07:08:36;0.60;;;0.60;;
71164;SDS011;58859;55.132;-1.586;2023-07-22T07:11:02;0.70;;;0.70;;
71164;SDS011;58859;55.132;-1.586;2023-07-22T07:13:27;0.50;;;0.50;;
71164;SDS011;58859;55.132;-1.586;2023-07-22T07:15:54;1.07;;;0.63;;
71164;SDS011;58859;55.132;-1.586;2023-07-22T07:18:19;0.60;;;0.50;;
71164;SDS011;58859;55.132;-1.586;2023-07-22T07:20:45;0.75;;;0.75;;
71164;SDS011;58859;55.132;-1.586;2023-07-22T07:23:12;0.87;;;0.73;;
71164;SDS011;58859;55.132;-1.586;2023-07-22T07:25:38;0.60;;;0.57;;
71164;SDS011;58859;55.132;-1.586;2023-07-22T07:28:04;0.30;;;0.30;;
71164;SDS011;58859;55.132;-1.586;2023-07-22T07:30:29;0.60;;;0.60;;
71164;SDS011;58859;55.132;-1.586;2023-07-22T07:32:54;0.97;;;0.60;;
71164;SDS011;58859;55.132;-1.586;2023-07-22T07:35:20;0.57;;;0.57;;
71164;SDS011;58859;55.132;-1.586;2023-07-22T07:37:45;0.70;;;0.70;;
71164;SDS011;58859;55.132;-1.586;2023-07-22T07:40:11;0.97;;;0.93;;
71164;SDS011;58859;55.132;-1.586;2023-07-22T07:42:37;0.63;;;0.63;;
71164;SDS011;58859;55.132;-1.586;2023-07-22T07:45:02;1.97;;;1.10;;
71164;SDS011;58859;55.132;-1.586;2023-07-22T07:47:28;0.63;;;0.63;;
71164;SDS011;58859;55.132;-1.586;2023-07-22T07:49:53;1.50;;;0.50;;
71164;SDS011;58859;55.132;-1.586;2023-07-22T07:52:19;1.27;;;0.60;;
71164;SDS011;58859;55.132;-1.586;2023-07-22T07:54:44;1.33;;;0.77;;
71164;SDS011;58859;55.132;-1.586;2023-07-22T07:57:10;1.80;;;0.40;;
71164;SDS011;58859;55.132;-1.586;2023-07-22T07:59:35;0.50;;;0.47;;
71164;SDS011;58859;55.132;-1.586;2023-07-22T08:02:01;0.50;;;0.40;;
71164;SDS011;58859;55.132;-1.586;2023-07-22T08:04:27;0.60;;;0.40;;
71164;SDS011;58859;55.132;-1.586;2023-07-22T08:06:52;0.70;;;0.63;;
71164;SDS011;58859;55.132;-1.586;2023-07-22T08:09:18;0.50;;;0.50;;
71164;SDS011;58859;55.132;-1.586;2023-07-22T08:11:46;0.45;;;0.45;;
71164;SDS011;58859;55.132;-1.586;2023-07-22T08:14:11;0.90;;;0.77;;
71164;SDS011;58859;55.132;-1.586;2023-07-22T08:16:37;0.40;;;0.40;;
71164;SDS011;58859;55.132;-1.586;2023-07-22T08:19:02;1.15;;;0.20;;
71164;SDS011;58859;55.132;-1.586;2023-07-22T08:21:29;1.10;;;0.20;;
71164;SDS011;58859;55.132;-1.586;2023-07-22T08:23:54;1.67;;;0.50;;
71164;SDS011;58859;55.132;-1.586;2023-07-22T08:26:20;0.40;;;0.40;;
71164;SDS011;58859;55.132;-1.586;2023-07-22T08:28:47;0.57;;;0.57;;
71164;SDS011;58859;55.132;-1.586;2023-07-22T08:31:12;0.50;;;0.38;;
71164;SDS011;58859;55.132;-1.586;2023-07-22T08:33:38;0.37;;;0.33;;
71164;SDS011;58859;55.132;-1.586;2023-07-22T08:36:03;0.83;;;0.40;;
71164;SDS011;58859;55.132;-1.586;2023-07-22T08:38:30;0.50;;;0.50;;
71164;SDS011;58859;55.132;-1.586;2023-07-22T08:40:56;0.50;;;0.50;;
71164;SDS011;58859;55.132;-1.586;2023-07-22T08:43:21;0.30;;;0.30;;
71164;SDS011;58859;55.132;-1.586;2023-07-22T08:45:51;0.60;;;0.60;;
71164;SDS011;58859;55.132;-1.586;2023-07-22T08:48:19;0.40;;;0.40;;
71164;SDS011;58859;55.132;-1.586;2023-07-22T08:50:52;0.60;;;0.30;;
71164;SDS011;58859;55.132;-1.586;2023-07-22T08:53:19;0.30;;;0.30;;
71164;SDS011;58859;55.132;-1.586;2023-07-22T08:55:45;0.40;;;0.23;;
71164;SDS011;58859;55.132;-1.586;2023-07-22T08:58:11;0.43;;;0.43;;
71164;SDS011;58859;55.132;-1.586;2023-07-22T09:00:37;0.63;;;0.63;;
71164;SDS011;58859;55.132;-1.586;2023-07-22T09:03:04;5.40;;;0.55;;
71164;SDS011;58859;55.132;-1.586;2023-07-22T09:05:33;0.50;;;0.50;;
71164;SDS011;58859;55.132;-1.586;2023-07-22T09:08:01;0.50;;;0.50;;
71164;SDS011;58859;55.132;-1.586;2023-07-22T09:10:28;1.10;;;1.00;;
71164;SDS011;58859;55.132;-1.586;2023-07-22T09:12:54;0.90;;;0.90;;
71164;SDS011;58859;55.132;-1.586;2023-07-22T09:15:19;0.77;;;0.77;;
71164;SDS011;58859;55.132;-1.586;2023-07-22T09:17:46;0.70;;;0.70;;
71164;SDS011;58859;55.132;-1.586;2023-07-22T09:20:12;1.10;;;0.70;;
71164;SDS011;58859;55.132;-1.586;2023-07-22T09:22:45;0.52;;;0.52;;
71164;SDS011;58859;55.132;-1.586;2023-07-22T09:25:17;0.60;;;0.60;;
71164;SDS011;58859;55.132;-1.586;2023-07-22T09:27:48;0.95;;;0.70;;
71164;SDS011;58859;55.132;-1.586;2023-07-22T09:32:47;1.50;;;0.90;;
71164;SDS011;58859;55.132;-1.586;2023-07-22T09:35:12;1.40;;;1.20;;
71164;SDS011;58859;55.132;-1.586;2023-07-22T09:37:38;1.55;;;1.42;;
71164;SDS011;58859;55.132;-1.586;2023-07-22T09:42:45;1.42;;;1.33;;
71164;SDS011;58859;55.132;-1.586;2023-07-22T09:45:11;1.40;;;1.30;;
71164;SDS011;58859;55.132;-1.586;2023-07-22T09:47:43;1.27;;;1.10;;
71164;SDS011;58859;55.132;-1.586;2023-07-22T09:50:17;0.85;;;0.80;;
71164;SDS011;58859;55.132;-1.586;2023-07-22T09:52:48;1.30;;;1.20;;
71164;SDS011;58859;55.132;-1.586;2023-07-22T09:55:15;2.60;;;1.47;;
71164;SDS011;58859;55.132;-1.586;2023-07-22T09:57:46;1.65;;;1.30;;
71164;SDS011;58859;55.132;-1.586;2023-07-22T10:00:14;1.23;;;1.13;;
71164;SDS011;58859;55.132;-1.586;2023-07-22T10:02:41;1.45;;;1.35;;
71164;SDS011;58859;55.132;-1.586;2023-07-22T10:05:11;1.77;;;1.20;;
71164;SDS011;58859;55.132;-1.586;2023-07-22T10:07:40;1.00;;;0.90;;
71164;SDS011;58859;55.132;-1.586;2023-07-22T10:10:10;1.02;;;0.93;;
71164;SDS011;58859;55.132;-1.586;2023-07-22T10:12:38;2.15;;;1.02;;
71164;SDS011;58859;55.132;-1.586;2023-07-22T10:15:05;1.00;;;0.90;;
71164;SDS011;58859;55.132;-1.586;2023-07-22T10:17:32;1.08;;;1.00;;
71164;SDS011;58859;55.132;-1.586;2023-07-22T10:19:58;2.63;;;1.30;;
71164;SDS011;58859;55.132;-1.586;2023-07-22T10:22:24;0.80;;;0.80;;
71164;SDS011;58859;55.132;-1.586;2023-07-22T10:24:49;1.33;;;1.23;;
71164;SDS011;58859;55.132;-1.586;2023-07-22T10:27:17;1.88;;;1.60;;
71164;SDS011;58859;55.132;-1.586;2023-07-22T10:29:43;1.20;;;1.10;;
71164;SDS011;58859;55.132;-1.586;2023-07-22T10:32:10;2.07;;;1.47;;
71164;SDS011;58859;55.132;-1.586;2023-07-22T10:34:36;0.73;;;0.73;;
71164;SDS011;58859;55.132;-1.586;2023-07-22T10:37:01;1.70;;;1.23;;
71164;SDS011;58859;55.132;-1.586;2023-07-22T10:39:29;1.23;;;1.13;;
71164;SDS011;58859;55.132;-1.586;2023-07-22T10:42:01;1.30;;;1.20;;
71164;SDS011;58859;55.132;-1.586;2023-07-22T10:44:30;1.30;;;1.20;;
71164;SDS011;58859;55.132;-1.586;2023-07-22T10:47:03;1.63;;;1.52;;
71164;SDS011;58859;55.132;-1.586;2023-07-22T10:49:45;2.60;;;1.23;;
71164;SDS011;58859;55.132;-1.586;2023-07-22T10:52:12;2.42;;;1.35;;
71164;SDS011;58859;55.132;-1.586;2023-07-22T10:54:39;1.58;;;1.48;;
71164;SDS011;58859;55.132;-1.586;2023-07-22T10:57:26;1.35;;;1.13;;
71164;SDS011;58859;55.132;-1.586;2023-07-22T10:59:52;2.25;;;1.40;;
71164;SDS011;58859;55.132;-1.586;2023-07-22T11:02:24;3.00;;;1.53;;
71164;SDS011;58859;55.132;-1.586;2023-07-22T11:04:50;1.77;;;1.30;;
71164;SDS011;58859;55.132;-1.586;2023-07-22T11:07:16;1.70;;;1.60;;
71164;SDS011;58859;55.132;-1.586;2023-07-22T11:09:55;1.25;;;1.25;;
71164;SDS011;58859;55.132;-1.586;2023-07-22T11:12:21;1.40;;;1.30;;
71164;SDS011;58859;55.132;-1.586;2023-07-22T11:14:50;2.03;;;1.52;;
71164;SDS011;58859;55.132;-1.586;2023-07-22T11:17:17;2.72;;;1.40;;
71164;SDS011;58859;55.132;-1.586;2023-07-22T11:19:43;1.10;;;1.10;;
71164;SDS011;58859;55.132;-1.586;2023-07-22T11:22:10;1.95;;;1.48;;
71164;SDS011;58859;55.132;-1.586;2023-07-22T11:24:36;0.90;;;0.90;;
71164;SDS011;58859;55.132;-1.586;2023-07-22T11:27:05;1.30;;;1.10;;
71164;SDS011;58859;55.132;-1.586;2023-07-22T11:29:33;1.30;;;1.17;;
71164;SDS011;58859;55.132;-1.586;2023-07-22T11:32:00;4.18;;;1.40;;
71164;SDS011;58859;55.132;-1.586;2023-07-22T11:34:26;1.55;;;1.40;;
71164;SDS011;58859;55.132;-1.586;2023-07-22T11:36:53;1.50;;;1.40;;
71164;SDS011;58859;55.132;-1.586;2023-07-22T11:39:26;1.77;;;1.27;;
71164;SDS011;58859;55.132;-1.586;2023-07-22T11:41:56;1.85;;;1.00;;
71164;SDS011;58859;55.132;-1.586;2023-07-22T11:44:26;1.88;;;1.35;;
71164;SDS011;58859;55.132;-1.586;2023-07-22T11:47:03;1.42;;;1.33;;
71164;SDS011;58859;55.132;-1.586;2023-07-22T11:52:06;0.80;;;0.80;;
71164;SDS011;58859;55.132;-1.586;2023-07-22T11:54:35;0.95;;;0.95;;
71164;SDS011;58859;55.132;-1.586;2023-07-22T11:57:20;1.25;;;1.15;;
71164;SDS011;58859;55.132;-1.586;2023-07-22T11:59:47;1.35;;;1.25;;
71164;SDS011;58859;55.132;-1.586;2023-07-22T12:02:21;1.52;;;1.40;;
71164;SDS011;58859;55.132;-1.586;2023-07-22T12:04:59;0.63;;;0.63;;
71164;SDS011;58859;55.132;-1.586;2023-07-22T12:07:37;0.90;;;0.90;;
71164;SDS011;58859;55.132;-1.586;2023-07-22T12:10:06;0.63;;;0.63;;
71164;SDS011;58859;55.132;-1.586;2023-07-22T12:12:43;0.90;;;0.82;;
71164;SDS011;58859;55.132;-1.586;2023-07-22T12:15:18;1.13;;;0.73;;
71164;SDS011;58859;55.132;-1.586;2023-07-22T12:17:46;0.70;;;0.70;;
71164;SDS011;58859;55.132;-1.586;2023-07-22T12:20:17;0.60;;;0.60;;
71164;SDS011;58859;55.132;-1.586;2023-07-22T12:22:43;0.60;;;0.60;;
71164;SDS011;58859;55.132;-1.586;2023-07-22T12:25:09;0.73;;;0.43;;
71164;SDS011;58859;55.132;-1.586;2023-07-22T12:27:36;1.67;;;0.63;;
71164;SDS011;58859;55.132;-1.586;2023-07-22T12:30:02;0.82;;;0.82;;
71164;SDS011;58859;55.132;-1.586;2023-07-22T12:32:28;1.30;;;1.20;;
71164;SDS011;58859;55.132;-1.586;2023-07-22T12:34:53;1.83;;;1.13;;
71164;SDS011;58859;55.132;-1.586;2023-07-22T12:37:18;1.13;;;1.03;;
71164;SDS011;58859;55.132;-1.586;2023-07-22T12:39:44;1.30;;;1.20;;
71164;SDS011;58859;55.132;-1.586;2023-07-22T12:42:10;1.47;;;1.37;;
71164;SDS011;58859;55.132;-1.586;2023-07-22T12:44:35;1.38;;;1.27;;
71164;SDS011;58859;55.132;-1.586;2023-07-22T12:47:01;3.05;;;1.42;;
71164;SDS011;58859;55.132;-1.586;2023-07-22T12:49:27;2.08;;;1.58;;
71164;SDS011;58859;55.132;-1.586;2023-07-22T12:51:52;2.80;;;2.10;;
71164;SDS011;58859;55.132;-1.586;2023-07-22T12:54:17;3.00;;;2.00;;
71164;SDS011;58859;55.132;-1.586;2023-07-22T12:56:43;2.60;;;2.40;;
71164;SDS011;58859;55.132;-1.586;2023-07-22T12:59:08;1.53;;;1.43;;
71164;SDS011;58859;55.132;-1.586;2023-07-22T13:01:33;1.40;;;1.30;;
71164;SDS011;58859;55.132;-1.586;2023-07-22T13:04:01;1.70;;;1.60;;
71164;SDS011;58859;55.132;-1.586;2023-07-22T13:06:26;1.93;;;1.57;;
71164;SDS011;58859;55.132;-1.586;2023-07-22T13:08:52;1.40;;;1.30;;
71164;SDS011;58859;55.132;-1.586;2023-07-22T13:11:17;2.50;;;2.30;;
71164;SDS011;58859;55.132;-1.586;2023-07-22T13:13:42;2.27;;;1.83;;
71164;SDS011;58859;55.132;-1.586;2023-07-22T13:16:08;2.37;;;2.00;;
71164;SDS011;58859;55.132;-1.586;2023-07-22T13:18:33;2.30;;;1.90;;
71164;SDS011;58859;55.132;-1.586;2023-07-22T13:20:58;2.40;;;2.10;;
71164;SDS011;58859;55.132;-1.586;2023-07-22T13:23:24;3.22;;;2.30;;
71164;SDS011;58859;55.132;-1.586;2023-07-22T13:25:49;3.22;;;2.30;;
71164;SDS011;58859;55.132;-1.586;2023-07-22T13:28:14;2.67;;;2.47;;
71164;SDS011;58859;55.132;-1.586;2023-07-22T13:30:40;3.23;;;2.00;;
71164;SDS011;58859;55.132;-1.586;2023-07-22T13:33:05;2.90;;;1.93;;
71164;SDS011;58859;55.132;-1.586;2023-07-22T13:35:31;2.75;;;2.38;;
71164;SDS011;58859;55.132;-1.586;2023-07-22T13:37:56;2.50;;;2.08;;
71164;SDS011;58859;55.132;-1.586;2023-07-22T13:40:22;4.40;;;2.57;;
71164;SDS011;58859;55.132;-1.586;2023-07-22T13:42:48;3.05;;;2.00;;
71164;SDS011;58859;55.132;-1.586;2023-07-22T13:45:13;1.67;;;1.57;;
71164;SDS011;58859;55.132;-1.586;2023-07-22T13:47:38;3.13;;;2.17;;
71164;SDS011;58859;55.132;-1.586;2023-07-22T13:50:04;2.27;;;2.03;;
71164;SDS011;58859;55.132;-1.586;2023-07-22T13:52:30;1.75;;;1.45;;
71164;SDS011;58859;55.132;-1.586;2023-07-22T13:54:55;2.30;;;2.00;;
71164;SDS011;58859;55.132;-1.586;2023-07-22T13:57:20;2.00;;;1.40;;
71164;SDS011;58859;55.132;-1.586;2023-07-22T13:59:46;1.73;;;1.63;;
71164;SDS011;58859;55.132;-1.586;2023-07-22T14:02:11;1.42;;;1.13;;
71164;SDS011;58859;55.132;-1.586;2023-07-22T14:04:37;1.90;;;1.60;;
71164;SDS011;58859;55.132;-1.586;2023-07-22T14:07:02;2.00;;;1.80;;
71164;SDS011;58859;55.132;-1.586;2023-07-22T14:09:27;2.83;;;1.90;;
71164;SDS011;58859;55.132;-1.586;2023-07-22T14:11:53;1.50;;;1.40;;
71164;SDS011;58859;55.132;-1.586;2023-07-22T14:14:18;2.17;;;1.70;;
71164;SDS011;58859;55.132;-1.586;2023-07-22T14:16:44;1.90;;;1.60;;
71164;SDS011;58859;55.132;-1.586;2023-07-22T14:19:10;2.33;;;2.13;;
71164;SDS011;58859;55.132;-1.586;2023-07-22T14:21:35;2.00;;;1.50;;
71164;SDS011;58859;55.132;-1.586;2023-07-22T14:24:00;2.22;;;1.70;;
71164;SDS011;58859;55.132;-1.586;2023-07-22T14:26:26;2.37;;;2.17;;
71164;SDS011;58859;55.132;-1.586;2023-07-22T14:28:51;2.47;;;1.60;;
71164;SDS011;58859;55.132;-1.586;2023-07-22T14:31:17;2.17;;;1.80;;
71164;SDS011;58859;55.132;-1.586;2023-07-22T14:33:42;1.92;;;1.48;;
71164;SDS011;58859;55.132;-1.586;2023-07-22T14:36:07;2.37;;;1.80;;